sensor_id;sensor_type;location;lat;lon;timestamp;temperature;humidity
14119;DHT22;7138;49.246;9.100;2022-07-23T00:00:31;22.40;99.90
14119;DHT22;7138;49.246;9.100;2022-07-23T00:02:57;22.40;99.90
14119;DHT22;7138;49.246;9.100;2022-07-23T00:05:23;22.40;99.90
14119;DHT22;7138;49.246;9.100;2022-07-23T00:07:49;22.40;99.90
14119;DHT22;7138;49.246;9.100;2022-07-23T00:10:15;22.30;99.90
14119;DHT22;7138;49.246;9.100;2022-07-23T00:12:43;22.20;99.90
14119;DHT22;7138;49.246;9.100;2022-07-23T00:15:09;22.10;99.90
14119;DHT22;7138;49.246;9.100;2022-07-23T00:17:35;22.20;99.90
14119;DHT22;7138;49.246;9.100;2022-07-23T00:20:02;22.10;99.90
14119;DHT22;7138;49.246;9.100;2022-07-23T00:22:28;22.10;99.90
14119;DHT22;7138;49.246;9.100;2022-07-23T00:24:54;22.10;99.90
14119;DHT22;7138;49.246;9.100;2022-07-23T00:27:21;22.20;99.90
14119;DHT22;7138;49.246;9.100;2022-07-23T00:29:48;22.20;99.90
14119;DHT22;7138;49.246;9.100;2022-07-23T00:32:14;22.20;99.90
14119;DHT22;7138;49.246;9.100;2022-07-23T00:34:41;22.20;99.90
14119;DHT22;7138;49.246;9.100;2022-07-23T00:37:07;22.20;99.90
14119;DHT22;7138;49.246;9.100;2022-07-23T00:39:32;22.20;99.90
14119;DHT22;7138;49.246;9.100;2022-07-23T00:41:58;22.20;99.90
14119;DHT22;7138;49.246;9.100;2022-07-23T00:44:26;22.30;99.90
14119;DHT22;7138;49.246;9.100;2022-07-23T00:46:56;22.20;99.90
14119;DHT22;7138;49.246;9.100;2022-07-23T00:49:26;22.20;99.90
14119;DHT22;7138;49.246;9.100;2022-07-23T00:51:53;22.20;99.90
14119;DHT22;7138;49.246;9.100;2022-07-23T00:54:21;22.20;99.90
14119;DHT22;7138;49.246;9.100;2022-07-23T00:56:48;22.10;99.90
14119;DHT22;7138;49.246;9.100;2022-07-23T00:59:15;22.00;99.90
14119;DHT22;7138;49.246;9.100;2022-07-23T01:01:41;21.90;99.90
14119;DHT22;7138;49.246;9.100;2022-07-23T01:04:10;21.90;99.90
14119;DHT22;7138;49.246;9.100;2022-07-23T01:06:38;21.80;99.90
14119;DHT22;7138;49.246;9.100;2022-07-23T01:09:05;21.80;99.90
14119;DHT22;7138;49.246;9.100;2022-07-23T01:11:32;21.80;99.90
14119;DHT22;7138;49.246;9.100;2022-07-23T01:13:58;21.90;99.90
14119;DHT22;7138;49.246;9.100;2022-07-23T01:16:24;21.80;99.90
14119;DHT22;7138;49.246;9.100;2022-07-23T01:18:50;21.80;99.90
14119;DHT22;7138;49.246;9.100;2022-07-23T01:21:18;21.80;99.90
14119;DHT22;7138;49.246;9.100;2022-07-23T01:23:45;21.70;99.90
14119;DHT22;7138;49.246;9.100;2022-07-23T01:26:11;21.70;99.90
14119;DHT22;7138;49.246;9.100;2022-07-23T01:28:37;21.80;99.90
14119;DHT22;7138;49.246;9.100;2022-07-23T01:31:03;21.90;99.90
14119;DHT22;7138;49.246;9.100;2022-07-23T01:33:29;21.90;99.90
14119;DHT22;7138;49.246;9.100;2022-07-23T01:35:55;21.90;99.90
14119;DHT22;7138;49.246;9.100;2022-07-23T01:38:21;21.90;99.90
14119;DHT22;7138;49.246;9.100;2022-07-23T01:40:48;21.80;99.90
14119;DHT22;7138;49.246;9.100;2022-07-23T01:43:14;21.70;99.90
14119;DHT22;7138;49.246;9.100;2022-07-23T01:45:40;21.60;99.90
14119;DHT22;7138;49.246;9.100;2022-07-23T01:48:07;21.60;99.90
14119;DHT22;7138;49.246;9.100;2022-07-23T01:50:33;21.60;99.90
14119;DHT22;7138;49.246;9.100;2022-07-23T01:52:59;21.50;99.90
14119;DHT22;7138;49.246;9.100;2022-07-23T01:55:25;21.40;99.90
14119;DHT22;7138;49.246;9.100;2022-07-23T01:57:52;21.20;99.90
14119;DHT22;7138;49.246;9.100;2022-07-23T02:00:18;21.20;99.90
14119;DHT22;7138;49.246;9.100;2022-07-23T02:02:44;21.30;99.90
14119;DHT22;7138;49.246;9.100;2022-07-23T02:05:10;21.40;99.90
14119;DHT22;7138;49.246;9.100;2022-07-23T02:07:36;21.40;99.90
14119;DHT22;7138;49.246;9.100;2022-07-23T02:10:02;21.50;99.90
14119;DHT22;7138;49.246;9.100;2022-07-23T02:12:29;21.40;99.90
14119;DHT22;7138;49.246;9.100;2022-07-23T02:14:56;21.40;99.90
14119;DHT22;7138;49.246;9.100;2022-07-23T02:17:22;21.50;99.90
14119;DHT22;7138;49.246;9.100;2022-07-23T02:19:48;21.40;99.90
14119;DHT22;7138;49.246;9.100;2022-07-23T02:22:13;21.50;99.90
14119;DHT22;7138;49.246;9.100;2022-07-23T02:24:39;21.40;99.90
14119;DHT22;7138;49.246;9.100;2022-07-23T02:27:05;21.30;99.90
14119;DHT22;7138;49.246;9.100;2022-07-23T02:29:31;21.20;99.90
14119;DHT22;7138;49.246;9.100;2022-07-23T02:31:58;21.20;99.90
14119;DHT22;7138;49.246;9.100;2022-07-23T02:34:24;21.20;99.90
14119;DHT22;7138;49.246;9.100;2022-07-23T02:36:50;21.10;99.90
14119;DHT22;7138;49.246;9.100;2022-07-23T02:39:16;21.10;99.90
14119;DHT22;7138;49.246;9.100;2022-07-23T02:41:41;21.00;99.90
14119;DHT22;7138;49.246;9.100;2022-07-23T02:44:07;20.90;99.90
14119;DHT22;7138;49.246;9.100;2022-07-23T02:46:33;21.00;99.90
14119;DHT22;7138;49.246;9.100;2022-07-23T02:49:00;20.90;99.90
14119;DHT22;7138;49.246;9.100;2022-07-23T02:51:26;20.80;99.90
14119;DHT22;7138;49.246;9.100;2022-07-23T02:53:52;20.80;99.90
14119;DHT22;7138;49.246;9.100;2022-07-23T02:56:18;20.70;99.90
14119;DHT22;7138;49.246;9.100;2022-07-23T02:58:43;20.70;99.90
14119;DHT22;7138;49.246;9.100;2022-07-23T03:01:09;20.70;99.90
14119;DHT22;7138;49.246;9.100;2022-07-23T03:03:35;20.60;99.90
14119;DHT22;7138;49.246;9.100;2022-07-23T03:06:03;20.60;99.90
14119;DHT22;7138;49.246;9.100;2022-07-23T03:08:29;20.60;99.90
14119;DHT22;7138;49.246;9.100;2022-07-23T03:10:54;20.50;99.90
14119;DHT22;7138;49.246;9.100;2022-07-23T03:13:20;20.50;99.90
14119;DHT22;7138;49.246;9.100;2022-07-23T03:15:46;20.60;99.90
14119;DHT22;7138;49.246;9.100;2022-07-23T03:18:12;20.50;99.90
14119;DHT22;7138;49.246;9.100;2022-07-23T03:20:38;20.50;99.90
14119;DHT22;7138;49.246;9.100;2022-07-23T03:23:05;20.40;99.90
14119;DHT22;7138;49.246;9.100;2022-07-23T03:25:31;20.40;99.90
14119;DHT22;7138;49.246;9.100;2022-07-23T03:27:57;20.40;99.90
14119;DHT22;7138;49.246;9.100;2022-07-23T03:30:23;20.30;99.90
14119;DHT22;7138;49.246;9.100;2022-07-23T03:32:49;20.30;99.90
14119;DHT22;7138;49.246;9.100;2022-07-23T03:35:15;20.40;99.90
14119;DHT22;7138;49.246;9.100;2022-07-23T03:37:41;20.40;99.90
14119;DHT22;7138;49.246;9.100;2022-07-23T03:40:09;20.40;99.90
14119;DHT22;7138;49.246;9.100;2022-07-23T03:42:36;20.40;99.90
14119;DHT22;7138;49.246;9.100;2022-07-23T03:45:03;20.40;99.90
14119;DHT22;7138;49.246;9.100;2022-07-23T03:47:30;20.30;99.90
14119;DHT22;7138;49.246;9.100;2022-07-23T03:49:56;20.20;99.90
14119;DHT22;7138;49.246;9.100;2022-07-23T03:52:21;20.20;99.90
14119;DHT22;7138;49.246;9.100;2022-07-23T03:54:47;20.20;99.90
14119;DHT22;7138;49.246;9.100;2022-07-23T03:57:15;20.10;99.90
14119;DHT22;7138;49.246;9.100;2022-07-23T03:59:41;20.10;99.90
14119;DHT22;7138;49.246;9.100;2022-07-23T04:02:07;20.10;99.90
14119;DHT22;7138;49.246;9.100;2022-07-23T04:04:33;20.00;99.90
14119;DHT22;7138;49.246;9.100;2022-07-23T04:06:59;20.00;99.90
14119;DHT22;7138;49.246;9.100;2022-07-23T04:09:24;20.00;99.90
14119;DHT22;7138;49.246;9.100;2022-07-23T04:11:50;19.90;99.90
14119;DHT22;7138;49.246;9.100;2022-07-23T04:14:18;19.90;99.90
14119;DHT22;7138;49.246;9.100;2022-07-23T04:16:44;19.90;99.90
14119;DHT22;7138;49.246;9.100;2022-07-23T04:19:10;19.90;99.90
14119;DHT22;7138;49.246;9.100;2022-07-23T04:21:35;19.80;99.90
14119;DHT22;7138;49.246;9.100;2022-07-23T04:24:01;19.90;99.90
14119;DHT22;7138;49.246;9.100;2022-07-23T04:26:28;19.80;99.90
14119;DHT22;7138;49.246;9.100;2022-07-23T04:28:53;19.80;99.90
14119;DHT22;7138;49.246;9.100;2022-07-23T04:31:20;19.70;99.90
14119;DHT22;7138;49.246;9.100;2022-07-23T04:33:46;19.70;99.90
14119;DHT22;7138;49.246;9.100;2022-07-23T04:36:12;19.80;99.90
14119;DHT22;7138;49.246;9.100;2022-07-23T04:38:38;19.90;99.90
14119;DHT22;7138;49.246;9.100;2022-07-23T04:41:04;19.90;99.90
14119;DHT22;7138;49.246;9.100;2022-07-23T04:43:30;19.90;99.90
14119;DHT22;7138;49.246;9.100;2022-07-23T04:45:56;19.90;99.90
14119;DHT22;7138;49.246;9.100;2022-07-23T04:48:23;19.90;99.90
14119;DHT22;7138;49.246;9.100;2022-07-23T04:50:49;19.90;99.90
14119;DHT22;7138;49.246;9.100;2022-07-23T04:53:15;19.90;99.90
14119;DHT22;7138;49.246;9.100;2022-07-23T04:55:40;19.90;99.90
14119;DHT22;7138;49.246;9.100;2022-07-23T04:58:06;19.90;99.90
14119;DHT22;7138;49.246;9.100;2022-07-23T05:00:32;19.90;99.90
14119;DHT22;7138;49.246;9.100;2022-07-23T05:02:58;19.90;99.90
14119;DHT22;7138;49.246;9.100;2022-07-23T05:05:25;19.90;99.90
14119;DHT22;7138;49.246;9.100;2022-07-23T05:07:51;19.90;99.90
14119;DHT22;7138;49.246;9.100;2022-07-23T05:10:17;20.00;99.90
14119;DHT22;7138;49.246;9.100;2022-07-23T05:12:43;20.00;99.90
14119;DHT22;7138;49.246;9.100;2022-07-23T05:15:09;20.00;99.90
14119;DHT22;7138;49.246;9.100;2022-07-23T05:17:35;20.00;99.90
14119;DHT22;7138;49.246;9.100;2022-07-23T05:20:00;20.00;99.90
14119;DHT22;7138;49.246;9.100;2022-07-23T05:22:28;20.10;99.90
14119;DHT22;7138;49.246;9.100;2022-07-23T05:24:54;20.10;99.90
14119;DHT22;7138;49.246;9.100;2022-07-23T05:27:20;20.10;99.90
14119;DHT22;7138;49.246;9.100;2022-07-23T05:29:46;20.10;99.90
14119;DHT22;7138;49.246;9.100;2022-07-23T05:32:12;20.10;99.90
14119;DHT22;7138;49.246;9.100;2022-07-23T05:34:38;20.10;99.90
14119;DHT22;7138;49.246;9.100;2022-07-23T05:37:03;20.00;99.90
14119;DHT22;7138;49.246;9.100;2022-07-23T05:39:31;19.90;99.90
14119;DHT22;7138;49.246;9.100;2022-07-23T05:41:57;19.80;99.90
14119;DHT22;7138;49.246;9.100;2022-07-23T05:44:22;19.70;99.90
14119;DHT22;7138;49.246;9.100;2022-07-23T05:46:48;19.70;99.90
14119;DHT22;7138;49.246;9.100;2022-07-23T05:49:14;19.70;99.90
14119;DHT22;7138;49.246;9.100;2022-07-23T05:51:40;19.70;99.90
14119;DHT22;7138;49.246;9.100;2022-07-23T05:54:06;19.70;99.90
14119;DHT22;7138;49.246;9.100;2022-07-23T05:56:33;19.90;99.90
14119;DHT22;7138;49.246;9.100;2022-07-23T05:58:59;19.90;99.90
14119;DHT22;7138;49.246;9.100;2022-07-23T06:01:25;20.00;99.90
14119;DHT22;7138;49.246;9.100;2022-07-23T06:03:51;20.10;99.90
14119;DHT22;7138;49.246;9.100;2022-07-23T06:06:16;20.20;99.90
14119;DHT22;7138;49.246;9.100;2022-07-23T06:08:42;20.10;99.90
14119;DHT22;7138;49.246;9.100;2022-07-23T06:11:08;20.10;99.90
14119;DHT22;7138;49.246;9.100;2022-07-23T06:13:35;20.10;99.90
14119;DHT22;7138;49.246;9.100;2022-07-23T06:16:01;20.10;99.90
14119;DHT22;7138;49.246;9.100;2022-07-23T06:18:27;20.10;99.90
14119;DHT22;7138;49.246;9.100;2022-07-23T06:20:53;20.00;99.90
14119;DHT22;7138;49.246;9.100;2022-07-23T06:23:20;20.10;99.90
14119;DHT22;7138;49.246;9.100;2022-07-23T06:25:45;20.10;99.90
14119;DHT22;7138;49.246;9.100;2022-07-23T06:28:11;20.20;99.90
14119;DHT22;7138;49.246;9.100;2022-07-23T06:30:39;20.30;99.90
14119;DHT22;7138;49.246;9.100;2022-07-23T06:33:04;20.50;99.90
14119;DHT22;7138;49.246;9.100;2022-07-23T06:35:30;20.60;99.90
14119;DHT22;7138;49.246;9.100;2022-07-23T06:37:56;20.80;99.90
14119;DHT22;7138;49.246;9.100;2022-07-23T06:40:22;20.90;99.90
14119;DHT22;7138;49.246;9.100;2022-07-23T06:42:49;21.00;99.90
14119;DHT22;7138;49.246;9.100;2022-07-23T06:45:15;21.10;99.90
14119;DHT22;7138;49.246;9.100;2022-07-23T06:47:42;21.30;99.90
14119;DHT22;7138;49.246;9.100;2022-07-23T06:50:08;21.40;99.90
14119;DHT22;7138;49.246;9.100;2022-07-23T06:52:34;21.30;99.90
14119;DHT22;7138;49.246;9.100;2022-07-23T06:55:00;21.20;99.90
14119;DHT22;7138;49.246;9.100;2022-07-23T06:57:26;21.20;99.90
14119;DHT22;7138;49.246;9.100;2022-07-23T06:59:52;21.10;99.90
14119;DHT22;7138;49.246;9.100;2022-07-23T07:02:18;21.00;99.90
14119;DHT22;7138;49.246;9.100;2022-07-23T07:04:46;20.90;99.90
14119;DHT22;7138;49.246;9.100;2022-07-23T07:07:11;20.80;99.90
14119;DHT22;7138;49.246;9.100;2022-07-23T07:09:37;20.90;99.90
14119;DHT22;7138;49.246;9.100;2022-07-23T07:12:04;20.90;99.90
14119;DHT22;7138;49.246;9.100;2022-07-23T07:14:30;21.00;99.90
14119;DHT22;7138;49.246;9.100;2022-07-23T07:16:56;21.20;99.90
14119;DHT22;7138;49.246;9.100;2022-07-23T07:19:22;21.40;99.90
14119;DHT22;7138;49.246;9.100;2022-07-23T07:21:49;21.40;99.90
14119;DHT22;7138;49.246;9.100;2022-07-23T07:24:15;21.30;99.90
14119;DHT22;7138;49.246;9.100;2022-07-23T07:26:41;21.40;99.90
14119;DHT22;7138;49.246;9.100;2022-07-23T07:29:07;21.50;99.90
14119;DHT22;7138;49.246;9.100;2022-07-23T07:31:33;21.50;99.90
14119;DHT22;7138;49.246;9.100;2022-07-23T07:33:59;21.50;99.90
14119;DHT22;7138;49.246;9.100;2022-07-23T07:36:25;21.60;99.90
14119;DHT22;7138;49.246;9.100;2022-07-23T07:38:52;21.70;99.90
14119;DHT22;7138;49.246;9.100;2022-07-23T07:41:18;21.70;99.90
14119;DHT22;7138;49.246;9.100;2022-07-23T07:43:48;22.10;99.90
14119;DHT22;7138;49.246;9.100;2022-07-23T07:46:14;22.40;99.90
14119;DHT22;7138;49.246;9.100;2022-07-23T07:48:39;22.80;99.90
14119;DHT22;7138;49.246;9.100;2022-07-23T07:51:05;23.80;99.90
14119;DHT22;7138;49.246;9.100;2022-07-23T07:53:31;24.10;99.90
14119;DHT22;7138;49.246;9.100;2022-07-23T07:55:59;24.70;99.90
14119;DHT22;7138;49.246;9.100;2022-07-23T07:58:25;25.30;99.90
14119;DHT22;7138;49.246;9.100;2022-07-23T08:00:50;25.70;99.90
14119;DHT22;7138;49.246;9.100;2022-07-23T08:03:16;26.00;99.90
14119;DHT22;7138;49.246;9.100;2022-07-23T08:05:43;26.20;99.90
14119;DHT22;7138;49.246;9.100;2022-07-23T08:08:09;26.30;99.90
14119;DHT22;7138;49.246;9.100;2022-07-23T08:10:40;25.80;99.90
14119;DHT22;7138;49.246;9.100;2022-07-23T08:13:08;25.40;99.90
14119;DHT22;7138;49.246;9.100;2022-07-23T08:15:38;25.00;99.90
14119;DHT22;7138;49.246;9.100;2022-07-23T08:18:04;24.70;99.90
14119;DHT22;7138;49.246;9.100;2022-07-23T08:20:30;24.40;99.90
14119;DHT22;7138;49.246;9.100;2022-07-23T08:22:57;24.10;99.90
14119;DHT22;7138;49.246;9.100;2022-07-23T08:25:26;24.00;99.90
14119;DHT22;7138;49.246;9.100;2022-07-23T08:27:54;23.80;99.90
14119;DHT22;7138;49.246;9.100;2022-07-23T08:30:24;23.90;99.90
14119;DHT22;7138;49.246;9.100;2022-07-23T08:32:53;24.10;99.90
14119;DHT22;7138;49.246;9.100;2022-07-23T08:35:24;24.20;99.90
14119;DHT22;7138;49.246;9.100;2022-07-23T08:37:51;24.20;99.90
14119;DHT22;7138;49.246;9.100;2022-07-23T08:40:18;23.90;99.90
14119;DHT22;7138;49.246;9.100;2022-07-23T08:42:47;23.90;99.90
14119;DHT22;7138;49.246;9.100;2022-07-23T08:45:16;23.80;99.90
14119;DHT22;7138;49.246;9.100;2022-07-23T08:47:48;24.20;99.90
14119;DHT22;7138;49.246;9.100;2022-07-23T08:50:15;24.80;99.90
14119;DHT22;7138;49.246;9.100;2022-07-23T08:52:41;25.70;99.90
14119;DHT22;7138;49.246;9.100;2022-07-23T08:55:08;26.00;99.90
14119;DHT22;7138;49.246;9.100;2022-07-23T08:57:34;26.40;99.90
14119;DHT22;7138;49.246;9.100;2022-07-23T09:00:00;26.40;99.90
14119;DHT22;7138;49.246;9.100;2022-07-23T09:02:26;26.90;99.90
14119;DHT22;7138;49.246;9.100;2022-07-23T09:04:54;26.90;99.90
14119;DHT22;7138;49.246;9.100;2022-07-23T09:07:20;27.10;99.90
14119;DHT22;7138;49.246;9.100;2022-07-23T09:09:46;27.20;99.90
14119;DHT22;7138;49.246;9.100;2022-07-23T09:12:12;27.10;99.90
14119;DHT22;7138;49.246;9.100;2022-07-23T09:14:39;27.20;99.90
14119;DHT22;7138;49.246;9.100;2022-07-23T09:17:10;27.30;99.90
14119;DHT22;7138;49.246;9.100;2022-07-23T09:19:37;27.70;99.90
14119;DHT22;7138;49.246;9.100;2022-07-23T09:22:18;27.80;99.90
14119;DHT22;7138;49.246;9.100;2022-07-23T09:25:06;27.50;99.90
14119;DHT22;7138;49.246;9.100;2022-07-23T09:27:46;27.90;99.90
14119;DHT22;7138;49.246;9.100;2022-07-23T09:30:18;28.10;99.90
14119;DHT22;7138;49.246;9.100;2022-07-23T09:33:03;27.90;99.90
14119;DHT22;7138;49.246;9.100;2022-07-23T09:35:44;28.40;99.90
14119;DHT22;7138;49.246;9.100;2022-07-23T09:38:13;28.40;99.90
14119;DHT22;7138;49.246;9.100;2022-07-23T09:40:39;28.00;99.90
14119;DHT22;7138;49.246;9.100;2022-07-23T09:43:05;27.80;99.90
14119;DHT22;7138;49.246;9.100;2022-07-23T09:45:31;28.30;99.90
14119;DHT22;7138;49.246;9.100;2022-07-23T09:48:11;28.80;99.90
14119;DHT22;7138;49.246;9.100;2022-07-23T09:50:39;29.00;99.90
14119;DHT22;7138;49.246;9.100;2022-07-23T09:53:05;28.80;99.90
14119;DHT22;7138;49.246;9.100;2022-07-23T09:55:36;28.80;99.90
14119;DHT22;7138;49.246;9.100;2022-07-23T09:58:06;28.80;99.90
14119;DHT22;7138;49.246;9.100;2022-07-23T10:00:38;29.00;99.90
14119;DHT22;7138;49.246;9.100;2022-07-23T10:03:06;29.40;99.90
14119;DHT22;7138;49.246;9.100;2022-07-23T10:05:33;29.50;99.90
14119;DHT22;7138;49.246;9.100;2022-07-23T10:08:02;29.50;99.90
14119;DHT22;7138;49.246;9.100;2022-07-23T10:10:28;29.50;99.90
14119;DHT22;7138;49.246;9.100;2022-07-23T10:12:57;29.40;99.90
14119;DHT22;7138;49.246;9.100;2022-07-23T10:15:26;28.50;99.90
14119;DHT22;7138;49.246;9.100;2022-07-23T10:17:52;28.40;99.90
14119;DHT22;7138;49.246;9.100;2022-07-23T10:20:18;29.00;99.90
14119;DHT22;7138;49.246;9.100;2022-07-23T10:22:55;29.50;99.90
14119;DHT22;7138;49.246;9.100;2022-07-23T10:25:32;29.60;99.90
14119;DHT22;7138;49.246;9.100;2022-07-23T10:28:19;29.60;99.90
14119;DHT22;7138;49.246;9.100;2022-07-23T10:31:05;29.20;99.90
14119;DHT22;7138;49.246;9.100;2022-07-23T10:33:48;29.30;99.90
14119;DHT22;7138;49.246;9.100;2022-07-23T10:36:26;29.50;99.90
14119;DHT22;7138;49.246;9.100;2022-07-23T10:39:04;29.50;99.90
14119;DHT22;7138;49.246;9.100;2022-07-23T10:41:36;29.30;99.90
14119;DHT22;7138;49.246;9.100;2022-07-23T10:44:08;29.50;99.90
14119;DHT22;7138;49.246;9.100;2022-07-23T10:46:35;30.00;99.90
14119;DHT22;7138;49.246;9.100;2022-07-23T10:49:26;29.90;99.90
14119;DHT22;7138;49.246;9.100;2022-07-23T10:52:16;30.00;99.90
14119;DHT22;7138;49.246;9.100;2022-07-23T10:54:50;29.80;99.90
14119;DHT22;7138;49.246;9.100;2022-07-23T10:57:20;29.90;99.90
14119;DHT22;7138;49.246;9.100;2022-07-23T11:00:13;30.20;99.90
14119;DHT22;7138;49.246;9.100;2022-07-23T11:02:48;30.00;99.90
14119;DHT22;7138;49.246;9.100;2022-07-23T11:05:16;30.10;99.90
14119;DHT22;7138;49.246;9.100;2022-07-23T11:08:17;29.80;99.90
14119;DHT22;7138;49.246;9.100;2022-07-23T11:10:50;29.50;99.90
14119;DHT22;7138;49.246;9.100;2022-07-23T11:13:39;29.20;99.90
14119;DHT22;7138;49.246;9.100;2022-07-23T11:16:15;29.60;99.90
14119;DHT22;7138;49.246;9.100;2022-07-23T11:19:03;29.20;99.90
14119;DHT22;7138;49.246;9.100;2022-07-23T11:21:50;29.50;99.90
14119;DHT22;7138;49.246;9.100;2022-07-23T11:24:21;30.10;99.90
14119;DHT22;7138;49.246;9.100;2022-07-23T11:26:54;30.40;99.90
14119;DHT22;7138;49.246;9.100;2022-07-23T11:29:49;30.30;99.90
14119;DHT22;7138;49.246;9.100;2022-07-23T11:32:35;30.30;99.90
14119;DHT22;7138;49.246;9.100;2022-07-23T11:35:21;30.30;99.90
14119;DHT22;7138;49.246;9.100;2022-07-23T11:37:51;29.50;99.90
14119;DHT22;7138;49.246;9.100;2022-07-23T11:40:19;29.20;99.90
14119;DHT22;7138;49.246;9.100;2022-07-23T11:42:54;29.10;99.90
14119;DHT22;7138;49.246;9.100;2022-07-23T11:45:29;29.00;99.90
14119;DHT22;7138;49.246;9.100;2022-07-23T11:47:57;29.30;99.90
14119;DHT22;7138;49.246;9.100;2022-07-23T11:50:24;29.30;99.90
14119;DHT22;7138;49.246;9.100;2022-07-23T11:52:52;29.50;99.90
14119;DHT22;7138;49.246;9.100;2022-07-23T11:55:18;29.80;99.90
14119;DHT22;7138;49.246;9.100;2022-07-23T11:57:45;29.60;99.90
14119;DHT22;7138;49.246;9.100;2022-07-23T12:00:14;29.90;99.90
14119;DHT22;7138;49.246;9.100;2022-07-23T12:02:44;29.70;99.90
14119;DHT22;7138;49.246;9.100;2022-07-23T12:05:13;29.60;99.90
14119;DHT22;7138;49.246;9.100;2022-07-23T12:07:42;29.90;99.90
14119;DHT22;7138;49.246;9.100;2022-07-23T12:10:11;29.80;99.90
14119;DHT22;7138;49.246;9.100;2022-07-23T12:12:42;29.80;99.90
14119;DHT22;7138;49.246;9.100;2022-07-23T12:15:10;29.80;99.90
14119;DHT22;7138;49.246;9.100;2022-07-23T12:17:38;30.00;99.90
14119;DHT22;7138;49.246;9.100;2022-07-23T12:20:11;29.90;99.90
14119;DHT22;7138;49.246;9.100;2022-07-23T12:22:40;29.30;99.90
14119;DHT22;7138;49.246;9.100;2022-07-23T12:25:09;29.40;99.90
14119;DHT22;7138;49.246;9.100;2022-07-23T12:27:37;29.60;99.90
14119;DHT22;7138;49.246;9.100;2022-07-23T12:30:22;29.60;99.90
14119;DHT22;7138;49.246;9.100;2022-07-23T12:32:51;29.40;99.90
14119;DHT22;7138;49.246;9.100;2022-07-23T12:35:21;29.50;99.90
14119;DHT22;7138;49.246;9.100;2022-07-23T12:37:51;29.00;99.90
14119;DHT22;7138;49.246;9.100;2022-07-23T12:40:29;28.90;99.90
14119;DHT22;7138;49.246;9.100;2022-07-23T12:42:57;28.90;99.90
14119;DHT22;7138;49.246;9.100;2022-07-23T12:45:25;28.40;99.90
14119;DHT22;7138;49.246;9.100;2022-07-23T12:47:55;28.60;99.90
14119;DHT22;7138;49.246;9.100;2022-07-23T12:50:37;29.40;99.90
14119;DHT22;7138;49.246;9.100;2022-07-23T12:53:10;29.60;99.90
14119;DHT22;7138;49.246;9.100;2022-07-23T12:55:38;29.60;99.90
14119;DHT22;7138;49.246;9.100;2022-07-23T12:58:10;29.30;99.90
14119;DHT22;7138;49.246;9.100;2022-07-23T13:01:02;29.10;99.90
14119;DHT22;7138;49.246;9.100;2022-07-23T13:03:32;29.70;99.90
14119;DHT22;7138;49.246;9.100;2022-07-23T13:06:04;30.20;99.90
14119;DHT22;7138;49.246;9.100;2022-07-23T13:08:33;30.50;99.90
14119;DHT22;7138;49.246;9.100;2022-07-23T13:11:01;30.40;99.90
14119;DHT22;7138;49.246;9.100;2022-07-23T13:13:30;30.40;99.90
14119;DHT22;7138;49.246;9.100;2022-07-23T13:15:58;29.70;99.90
14119;DHT22;7138;49.246;9.100;2022-07-23T13:18:25;30.30;99.90
14119;DHT22;7138;49.246;9.100;2022-07-23T13:20:53;30.30;99.90
14119;DHT22;7138;49.246;9.100;2022-07-23T13:23:22;30.00;99.90
14119;DHT22;7138;49.246;9.100;2022-07-23T13:25:49;29.10;99.90
14119;DHT22;7138;49.246;9.100;2022-07-23T13:28:16;28.60;99.90
14119;DHT22;7138;49.246;9.100;2022-07-23T13:30:44;29.30;99.90
14119;DHT22;7138;49.246;9.100;2022-07-23T13:33:12;29.30;99.90
14119;DHT22;7138;49.246;9.100;2022-07-23T13:35:37;28.90;99.90
14119;DHT22;7138;49.246;9.100;2022-07-23T13:38:04;28.40;99.90
14119;DHT22;7138;49.246;9.100;2022-07-23T13:40:35;28.60;99.90
14119;DHT22;7138;49.246;9.100;2022-07-23T13:43:01;28.60;99.90
14119;DHT22;7138;49.246;9.100;2022-07-23T13:45:27;28.30;99.90
14119;DHT22;7138;49.246;9.100;2022-07-23T13:47:53;28.10;99.90
14119;DHT22;7138;49.246;9.100;2022-07-23T13:50:19;28.00;99.90
14119;DHT22;7138;49.246;9.100;2022-07-23T13:52:45;28.30;99.90
14119;DHT22;7138;49.246;9.100;2022-07-23T13:55:11;28.80;99.90
14119;DHT22;7138;49.246;9.100;2022-07-23T13:57:38;28.80;99.90
14119;DHT22;7138;49.246;9.100;2022-07-23T14:00:06;28.40;99.90
14119;DHT22;7138;49.246;9.100;2022-07-23T14:02:35;28.30;99.90
14119;DHT22;7138;49.246;9.100;2022-07-23T14:05:03;28.60;99.90
14119;DHT22;7138;49.246;9.100;2022-07-23T14:07:29;28.60;99.90
14119;DHT22;7138;49.246;9.100;2022-07-23T14:09:55;28.40;99.90
14119;DHT22;7138;49.246;9.100;2022-07-23T14:12:21;28.60;99.90
14119;DHT22;7138;49.246;9.100;2022-07-23T14:14:48;28.60;99.90
14119;DHT22;7138;49.246;9.100;2022-07-23T14:17:14;28.90;99.90
14119;DHT22;7138;49.246;9.100;2022-07-23T14:19:40;29.50;99.90
14119;DHT22;7138;49.246;9.100;2022-07-23T14:22:07;29.60;99.90
14119;DHT22;7138;49.246;9.100;2022-07-23T14:24:33;29.30;99.90
14119;DHT22;7138;49.246;9.100;2022-07-23T14:27:00;29.30;99.90
14119;DHT22;7138;49.246;9.100;2022-07-23T14:29:27;29.10;99.90
14119;DHT22;7138;49.246;9.100;2022-07-23T14:31:54;29.00;99.90
14119;DHT22;7138;49.246;9.100;2022-07-23T14:34:20;28.80;99.90
14119;DHT22;7138;49.246;9.100;2022-07-23T14:36:46;28.90;99.90
14119;DHT22;7138;49.246;9.100;2022-07-23T14:39:12;28.40;99.90
14119;DHT22;7138;49.246;9.100;2022-07-23T14:41:38;27.80;99.90
14119;DHT22;7138;49.246;9.100;2022-07-23T14:44:05;27.90;99.90
14119;DHT22;7138;49.246;9.100;2022-07-23T14:46:31;28.10;99.90
14119;DHT22;7138;49.246;9.100;2022-07-23T14:48:59;28.30;99.90
14119;DHT22;7138;49.246;9.100;2022-07-23T14:51:25;28.80;99.90
14119;DHT22;7138;49.246;9.100;2022-07-23T14:53:50;29.00;99.90
14119;DHT22;7138;49.246;9.100;2022-07-23T14:56:17;29.00;99.90
14119;DHT22;7138;49.246;9.100;2022-07-23T14:58:43;28.80;99.90
14119;DHT22;7138;49.246;9.100;2022-07-23T15:01:08;28.40;99.90
14119;DHT22;7138;49.246;9.100;2022-07-23T15:03:34;28.10;99.90
14119;DHT22;7138;49.246;9.100;2022-07-23T15:06:02;28.10;99.90
14119;DHT22;7138;49.246;9.100;2022-07-23T15:08:28;28.00;99.90
14119;DHT22;7138;49.246;9.100;2022-07-23T15:10:54;28.00;99.90
14119;DHT22;7138;49.246;9.100;2022-07-23T15:13:20;28.20;99.90
14119;DHT22;7138;49.246;9.100;2022-07-23T15:15:46;28.40;99.90
14119;DHT22;7138;49.246;9.100;2022-07-23T15:18:12;28.40;99.90
14119;DHT22;7138;49.246;9.100;2022-07-23T15:20:38;28.40;99.90
14119;DHT22;7138;49.246;9.100;2022-07-23T15:23:06;28.20;99.90
14119;DHT22;7138;49.246;9.100;2022-07-23T15:25:32;27.80;99.90
14119;DHT22;7138;49.246;9.100;2022-07-23T15:27:58;27.70;99.90
14119;DHT22;7138;49.246;9.100;2022-07-23T15:30:25;27.50;99.90
14119;DHT22;7138;49.246;9.100;2022-07-23T15:32:51;27.60;99.90
14119;DHT22;7138;49.246;9.100;2022-07-23T15:35:17;27.60;99.90
14119;DHT22;7138;49.246;9.100;2022-07-23T15:37:43;27.40;99.90
14119;DHT22;7138;49.246;9.100;2022-07-23T15:40:12;27.30;99.90
14119;DHT22;7138;49.246;9.100;2022-07-23T15:42:38;27.20;99.90
14119;DHT22;7138;49.246;9.100;2022-07-23T15:45:05;27.30;99.90
14119;DHT22;7138;49.246;9.100;2022-07-23T15:47:31;27.30;99.90
14119;DHT22;7138;49.246;9.100;2022-07-23T15:49:57;27.50;99.90